createdAt,value
2023-03-29T00:02:03.993Z,4.08
2023-03-29T00:04:30.823Z,4.07
2023-03-29T00:06:57.836Z,4.11
2023-03-29T00:09:26.672Z,3.99
2023-03-29T00:11:53.507Z,4.13
2023-03-29T00:14:20.197Z,4.13
2023-03-29T00:16:47.157Z,4.14
2023-03-29T00:19:13.988Z,4.26
2023-03-29T00:21:40.870Z,4.19
2023-03-29T00:24:07.806Z,4.23
2023-03-29T00:26:34.464Z,4.21
2023-03-29T00:29:01.193Z,4.12
2023-03-29T00:31:28.481Z,4.22
2023-03-29T00:33:55.243Z,4.20
2023-03-29T00:36:22.158Z,4.24
2023-03-29T00:38:49.056Z,4.06
2023-03-29T00:41:15.887Z,4.08
2023-03-29T00:44:00.789Z,4.18
2023-03-29T00:46:30.163Z,4.21
2023-03-29T00:49:02.324Z,4.26
2023-03-29T00:51:32.948Z,4.28
2023-03-29T00:54:03.421Z,4.23
2023-03-29T00:56:37.055Z,4.17
2023-03-29T00:59:15.650Z,4.30
2023-03-29T01:01:50.488Z,4.27
2023-03-29T01:04:25.944Z,4.38
2023-03-29T01:07:04.060Z,4.25
2023-03-29T01:09:33.864Z,4.18
2023-03-29T01:12:05.540Z,4.18
2023-03-29T01:14:39.054Z,4.35
2023-03-29T01:17:06.665Z,4.50
2023-03-29T01:19:42.270Z,4.44
2023-03-29T01:22:17.999Z,4.49
2023-03-29T01:25:00.254Z,4.59
2023-03-29T01:27:58.379Z,4.65
2023-03-29T01:30:37.317Z,4.41
2023-03-29T01:33:23.389Z,4.51
2023-03-29T01:36:19.090Z,4.61
2023-03-29T01:39:04.913Z,4.68
2023-03-29T01:42:01.821Z,4.82
2023-03-29T01:44:42.965Z,4.79
2023-03-29T01:47:54.691Z,4.76
2023-03-29T01:50:43.221Z,4.70
2023-03-29T01:53:25.007Z,4.75
2023-03-29T01:56:11.802Z,4.67
2023-03-29T01:58:44.774Z,4.73
2023-03-29T02:01:17.727Z,4.68
2023-03-29T02:03:49.846Z,4.68
2023-03-29T02:06:20.633Z,4.46
2023-03-29T02:08:47.974Z,4.52
2023-03-29T02:11:14.648Z,4.57
2023-03-29T02:13:41.530Z,4.43
2023-03-29T02:16:14.258Z,4.49
2023-03-29T02:18:46.511Z,4.49
2023-03-29T02:21:21.307Z,4.51
2023-03-29T02:23:50.508Z,4.50
2023-03-29T02:26:17.914Z,4.52
2023-03-29T02:28:44.558Z,4.59
2023-03-29T02:31:29.400Z,4.62
2023-03-29T02:34:31.596Z,4.55
2023-03-29T02:37:06.912Z,4.56
2023-03-29T02:39:35.059Z,4.48
2023-03-29T02:42:03.711Z,4.60
2023-03-29T02:44:33.179Z,4.65
2023-03-29T02:47:06.506Z,4.74
2023-03-29T02:49:33.253Z,4.77
2023-03-29T02:52:08.548Z,4.79
2023-03-29T02:54:38.006Z,4.71
2023-03-29T02:57:08.655Z,4.70
2023-03-29T02:59:35.991Z,4.70
2023-03-29T03:02:03.258Z,4.67
2023-03-29T03:04:30.499Z,4.55
2023-03-29T03:06:57.546Z,4.50
2023-03-29T03:09:24.231Z,4.48
2023-03-29T03:11:51.200Z,4.31
2023-03-29T03:14:19.052Z,4.42
2023-03-29T03:16:45.853Z,4.53
2023-03-29T03:19:13.272Z,4.49
2023-03-29T03:21:39.929Z,4.53
2023-03-29T03:24:07.648Z,4.64
2023-03-29T03:26:35.877Z,4.57
2023-03-29T03:29:02.585Z,4.47
2023-03-29T03:31:29.269Z,4.47
2023-03-29T03:33:56.676Z,4.52
2023-03-29T03:36:28.970Z,4.31
2023-03-29T03:38:55.725Z,4.36
2023-03-29T03:41:22.856Z,4.44
2023-03-29T03:43:49.623Z,4.38
2023-03-29T03:46:17.221Z,4.24
2023-03-29T03:48:44.987Z,4.18
2023-03-29T03:51:11.914Z,4.08
2023-03-29T03:53:39.682Z,4.32
2023-03-29T03:56:09.821Z,4.69
2023-03-29T03:58:37.529Z,4.84
2023-03-29T04:01:05.482Z,4.90
2023-03-29T04:03:32.149Z,5.09
2023-03-29T04:06:02.911Z,5.19
2023-03-29T04:08:30.268Z,5.01
2023-03-29T04:10:58.420Z,4.84
2023-03-29T04:13:26.431Z,4.90
2023-03-29T04:15:58.784Z,4.92
2023-03-29T04:18:27.580Z,4.95
2023-03-29T04:20:54.307Z,4.98
2023-03-29T04:23:22.889Z,4.96
2023-03-29T04:25:49.496Z,4.51
2023-03-29T04:28:16.254Z,4.41
2023-03-29T04:30:42.946Z,4.42
2023-03-29T04:33:10.368Z,4.42
2023-03-29T04:35:37.736Z,4.34
2023-03-29T04:38:04.521Z,4.49
2023-03-29T04:40:31.375Z,4.68
2023-03-29T04:43:00.082Z,4.71
2023-03-29T04:45:26.800Z,4.71
2023-03-29T04:47:57.131Z,4.76
2023-03-29T04:50:23.782Z,4.73
2023-03-29T04:52:50.937Z,4.84
2023-03-29T04:55:17.764Z,4.88
2023-03-29T04:57:47.199Z,4.91
2023-03-29T05:00:15.388Z,4.99
2023-03-29T05:02:44.215Z,5.02
2023-03-29T05:05:11.951Z,4.94
2023-03-29T05:07:39.396Z,4.99
2023-03-29T05:10:07.136Z,4.99
2023-03-29T05:12:33.784Z,5.03
2023-03-29T05:15:00.433Z,4.96
2023-03-29T05:17:27.485Z,5.03
2023-03-29T05:19:54.780Z,5.03
2023-03-29T05:22:21.774Z,5.06
2023-03-29T05:24:48.643Z,5.11
2023-03-29T05:27:16.994Z,5.17
2023-03-29T05:29:44.776Z,5.11
2023-03-29T05:32:11.736Z,5.11
2023-03-29T05:34:39.281Z,5.15
2023-03-29T05:37:06.107Z,5.24
2023-03-29T05:39:35.729Z,5.25
2023-03-29T05:42:04.616Z,5.20
2023-03-29T05:44:31.488Z,5.32
2023-03-29T05:46:58.256Z,5.41
2023-03-29T05:49:25.678Z,5.42
2023-03-29T05:51:56.928Z,5.28
2023-03-29T05:54:24.458Z,5.26
2023-03-29T05:56:51.369Z,5.33
2023-03-29T05:59:19.499Z,5.45
2023-03-29T06:01:49.367Z,5.57
2023-03-29T06:04:18.200Z,5.43
2023-03-29T06:06:44.985Z,5.46
2023-03-29T06:09:11.720Z,5.52
2023-03-29T06:11:38.352Z,5.50
2023-03-29T06:14:05.200Z,5.59
2023-03-29T06:16:32.432Z,5.71
2023-03-29T06:18:59.211Z,5.86
2023-03-29T06:21:28.192Z,6.07
2023-03-29T06:23:54.992Z,6.25
2023-03-29T06:26:21.748Z,6.08
2023-03-29T06:28:51.400Z,6.16
2023-03-29T06:31:19.851Z,5.97
2023-03-29T06:33:46.861Z,6.02
2023-03-29T06:36:16.164Z,6.14
2023-03-29T06:38:45.605Z,6.27
2023-03-29T06:41:12.295Z,6.38
2023-03-29T06:43:39.225Z,6.30
2023-03-29T06:46:11.917Z,5.93
2023-03-29T06:48:39.891Z,6.18
2023-03-29T06:51:07.666Z,6.22
2023-03-29T06:53:34.959Z,6.44
2023-03-29T06:56:05.431Z,6.53
2023-03-29T06:58:32.125Z,6.76
2023-03-29T07:01:02.677Z,6.57
2023-03-29T07:03:30.052Z,6.76
2023-03-29T07:06:04.018Z,6.94
2023-03-29T07:08:31.593Z,7.22
2023-03-29T07:10:59.607Z,7.33
2023-03-29T07:13:26.456Z,7.23
2023-03-29T07:15:53.265Z,7.35
2023-03-29T07:18:20.287Z,7.56
2023-03-29T07:20:48.405Z,7.69
2023-03-29T07:23:15.432Z,7.34
2023-03-29T07:25:42.178Z,7.28
2023-03-29T07:28:09.217Z,7.27
2023-03-29T07:30:37.136Z,7.73
2023-03-29T07:33:04.507Z,8.15
2023-03-29T07:35:31.322Z,8.28
2023-03-29T07:37:58.619Z,8.46
2023-03-29T07:40:27.265Z,8.57
2023-03-29T07:42:56.559Z,9.42
2023-03-29T07:45:26.071Z,9.03
2023-03-29T07:47:58.948Z,8.93
2023-03-29T07:50:26.783Z,9.42
2023-03-29T07:52:53.824Z,9.71
2023-03-29T07:55:20.825Z,10.01
2023-03-29T07:57:49.231Z,9.96
2023-03-29T08:00:16.937Z,10.06
2023-03-29T08:02:49.782Z,9.89
2023-03-29T08:05:26.090Z,9.58
2023-03-29T08:07:53.032Z,9.41
2023-03-29T08:10:21.981Z,9.57
2023-03-29T08:12:50.445Z,9.75
2023-03-29T08:15:17.236Z,10.17
2023-03-29T08:17:43.976Z,9.97
2023-03-29T08:20:13.766Z,9.92
2023-03-29T08:22:40.556Z,10.10
2023-03-29T08:25:08.071Z,10.04
2023-03-29T08:27:35.361Z,10.55
2023-03-29T08:30:01.994Z,11.12
2023-03-29T08:32:28.684Z,11.86
2023-03-29T08:34:55.480Z,11.97
2023-03-29T08:37:24.616Z,11.59
2023-03-29T08:39:51.653Z,11.30
2023-03-29T08:42:40.904Z,11.36
2023-03-29T08:45:16.440Z,11.40
2023-03-29T08:48:12.409Z,11.58
2023-03-29T08:50:49.469Z,11.59
2023-03-29T08:53:30.986Z,11.68
2023-03-29T08:56:01.804Z,11.89
2023-03-29T08:58:32.608Z,12.16
2023-03-29T09:01:06.106Z,12.69
2023-03-29T09:03:39.134Z,12.99
2023-03-29T09:06:10.997Z,13.46
2023-03-29T09:08:41.438Z,13.15
2023-03-29T09:11:08.134Z,13.75
2023-03-29T09:14:02.763Z,14.31
2023-03-29T09:17:14.681Z,14.23
2023-03-29T09:19:55.117Z,13.83
2023-03-29T09:23:02.281Z,13.86
2023-03-29T09:25:43.833Z,14.35
2023-03-29T09:28:27.100Z,14.27
2023-03-29T09:31:12.301Z,13.99
2023-03-29T09:34:03.714Z,14.34
2023-03-29T09:36:53.618Z,14.39
2023-03-29T09:39:22.206Z,14.02
2023-03-29T09:42:09.087Z,14.43
2023-03-29T09:44:44.018Z,14.02
2023-03-29T09:47:16.716Z,13.95
2023-03-29T09:49:57.583Z,13.98
2023-03-29T09:52:24.304Z,14.81
2023-03-29T09:54:52.457Z,14.60
2023-03-29T09:57:20.656Z,14.88
2023-03-29T09:59:50.315Z,15.03
2023-03-29T10:02:21.155Z,15.26
2023-03-29T10:04:55.450Z,15.78
2023-03-29T10:07:22.755Z,16.81
2023-03-29T10:09:52.598Z,16.84
2023-03-29T10:12:19.978Z,16.13
2023-03-29T10:14:53.518Z,15.31
2023-03-29T10:17:32.716Z,14.71
2023-03-29T10:20:04.141Z,14.64
2023-03-29T10:22:37.748Z,15.30
2023-03-29T10:25:12.681Z,15.15
2023-03-29T10:27:42.392Z,14.05
2023-03-29T10:30:12.933Z,14.02
2023-03-29T10:32:41.237Z,13.87
2023-03-29T10:35:25.013Z,13.84
2023-03-29T10:37:53.647Z,13.88
2023-03-29T10:40:34.637Z,13.56
2023-03-29T10:43:12.993Z,13.08
2023-03-29T10:45:40.998Z,12.95
2023-03-29T10:48:13.002Z,13.02
2023-03-29T10:50:39.775Z,13.51
2023-03-29T10:53:15.100Z,13.44
2023-03-29T10:55:57.257Z,13.29
2023-03-29T10:58:42.170Z,13.31
2023-03-29T11:01:27.120Z,13.22
2023-03-29T11:04:18.567Z,13.13
2023-03-29T11:07:14.895Z,13.12
2023-03-29T11:10:04.833Z,13.45
2023-03-29T11:13:02.314Z,13.73
2023-03-29T11:15:52.792Z,13.87
2023-03-29T11:18:46.030Z,13.81
2023-03-29T11:21:33.374Z,14.11
2023-03-29T11:24:18.303Z,14.34
2023-03-29T11:26:56.842Z,14.64
2023-03-29T11:29:31.615Z,14.79
2023-03-29T11:32:08.885Z,14.88
2023-03-29T11:35:03.251Z,14.92
2023-03-29T11:37:38.709Z,15.26
2023-03-29T11:40:36.741Z,15.43
2023-03-29T11:43:09.478Z,15.41
2023-03-29T11:45:41.220Z,15.92
2023-03-29T11:48:18.921Z,16.31
2023-03-29T11:51:02.618Z,15.80
2023-03-29T11:53:57.027Z,15.68
2023-03-29T11:56:34.964Z,16.05
2023-03-29T11:59:10.350Z,16.24
2023-03-29T12:01:48.689Z,16.15
2023-03-29T12:04:26.042Z,16.40
2023-03-29T12:07:17.373Z,16.47
2023-03-29T12:09:54.196Z,16.15
2023-03-29T12:12:27.061Z,16.15
2023-03-29T12:15:17.213Z,16.13
2023-03-29T12:17:54.823Z,15.90
2023-03-29T12:20:28.175Z,15.68
2023-03-29T12:22:55.552Z,15.84
2023-03-29T12:25:30.239Z,15.67
2023-03-29T12:28:19.193Z,16.25
2023-03-29T12:31:03.343Z,16.00
2023-03-29T12:33:40.242Z,15.98
2023-03-29T12:36:21.435Z,16.47
2023-03-29T12:38:52.418Z,16.38
2023-03-29T12:41:21.878Z,16.97
2023-03-29T12:43:48.940Z,16.71
2023-03-29T12:46:24.266Z,17.10
2023-03-29T12:49:05.714Z,17.83
2023-03-29T12:51:35.050Z,17.42
2023-03-29T12:54:22.598Z,16.74
2023-03-29T12:56:52.538Z,16.87
2023-03-29T12:59:34.675Z,17.36
2023-03-29T13:02:17.803Z,18.09
2023-03-29T13:05:00.259Z,17.44
2023-03-29T13:07:33.345Z,17.81
2023-03-29T13:10:03.359Z,17.98
2023-03-29T13:12:36.104Z,17.59
2023-03-29T13:15:07.307Z,17.79
2023-03-29T13:18:04.017Z,17.97
2023-03-29T13:20:39.920Z,17.44
2023-03-29T13:23:36.437Z,17.25
2023-03-29T13:26:22.018Z,17.21
2023-03-29T13:29:13.743Z,17.54
2023-03-29T13:32:32.670Z,17.33
2023-03-29T13:35:06.280Z,17.50
2023-03-29T13:37:53.224Z,17.93
2023-03-29T13:40:43.095Z,17.72
2023-03-29T13:43:11.016Z,17.26
2023-03-29T13:45:38.857Z,17.00
2023-03-29T13:48:28.984Z,17.62
2023-03-29T13:51:08.058Z,17.42
2023-03-29T13:53:41.058Z,17.37
2023-03-29T13:56:15.508Z,17.70
2023-03-29T13:58:48.945Z,18.00
2023-03-29T14:01:16.507Z,17.87
2023-03-29T14:03:46.467Z,18.12
2023-03-29T14:06:17.740Z,17.47
2023-03-29T14:08:45.328Z,17.59
2023-03-29T14:11:29.712Z,17.01
2023-03-29T14:14:02.831Z,17.47
2023-03-29T14:16:32.870Z,17.60
2023-03-29T14:19:03.010Z,18.00
2023-03-29T14:21:29.944Z,18.03
2023-03-29T14:24:00.618Z,17.78
2023-03-29T14:26:33.070Z,18.07
2023-03-29T14:29:01.445Z,17.67
2023-03-29T14:31:37.266Z,17.87
2023-03-29T14:34:07.929Z,17.79
2023-03-29T14:36:36.463Z,17.60
2023-03-29T14:39:15.812Z,18.16
2023-03-29T14:41:50.099Z,18.52
2023-03-29T14:44:19.750Z,18.59
2023-03-29T14:46:49.235Z,18.33
2023-03-29T14:49:18.530Z,18.17
2023-03-29T14:51:47.038Z,18.24
2023-03-29T14:54:23.292Z,18.00
2023-03-29T14:56:51.523Z,17.96
2023-03-29T14:59:27.313Z,17.75
2023-03-29T15:01:54.466Z,17.93
2023-03-29T15:04:21.143Z,17.57
2023-03-29T15:06:50.688Z,17.54
2023-03-29T15:09:27.661Z,17.73
2023-03-29T15:11:56.742Z,17.56
2023-03-29T15:14:26.946Z,17.17
2023-03-29T15:17:01.181Z,17.27
2023-03-29T15:19:28.229Z,17.41
2023-03-29T15:21:54.938Z,17.24
2023-03-29T15:24:48.260Z,17.52
2023-03-29T15:27:17.892Z,17.06
2023-03-29T15:29:47.260Z,16.77
2023-03-29T15:32:22.620Z,16.54
2023-03-29T15:35:05.080Z,16.77
2023-03-29T15:37:32.315Z,16.69
2023-03-29T15:39:59.214Z,16.36
2023-03-29T15:42:26.222Z,16.33
2023-03-29T15:44:56.476Z,16.55
2023-03-29T15:47:24.133Z,16.75
2023-03-29T15:49:51.050Z,16.66
2023-03-29T15:52:17.689Z,16.26
2023-03-29T15:54:44.546Z,16.49
2023-03-29T15:57:14.883Z,16.51
2023-03-29T15:59:43.270Z,16.16
2023-03-29T16:02:20.123Z,16.02
2023-03-29T16:04:46.857Z,16.05
2023-03-29T16:07:16.404Z,16.13
2023-03-29T16:09:43.996Z,16.17
2023-03-29T16:12:11.096Z,15.94
2023-03-29T16:14:38.169Z,15.84
2023-03-29T16:17:06.018Z,15.89
2023-03-29T16:19:33.843Z,15.74
2023-03-29T16:22:02.890Z,15.75
2023-03-29T16:24:32.030Z,15.69
2023-03-29T16:27:01.235Z,15.68
2023-03-29T16:29:28.742Z,15.65
2023-03-29T16:31:56.411Z,15.43
2023-03-29T16:34:23.272Z,15.35
2023-03-29T16:36:50.642Z,15.43
2023-03-29T16:39:18.140Z,15.38
2023-03-29T16:41:48.273Z,15.34
2023-03-29T16:44:23.178Z,15.17
2023-03-29T16:46:53.685Z,15.16
2023-03-29T16:49:20.629Z,15.15
2023-03-29T16:51:47.941Z,15.13
2023-03-29T16:54:17.134Z,15.12
2023-03-29T16:56:43.850Z,15.22
2023-03-29T16:59:10.641Z,15.04
2023-03-29T17:01:37.523Z,15.04
2023-03-29T17:04:04.745Z,15.01
2023-03-29T17:06:32.620Z,15.04
2023-03-29T17:09:00.703Z,14.91
2023-03-29T17:11:28.365Z,14.97
2023-03-29T17:13:55.204Z,14.89
2023-03-29T17:16:22.177Z,14.87
2023-03-29T17:18:49.087Z,14.74
2023-03-29T17:21:15.826Z,14.80
2023-03-29T17:23:42.489Z,14.68
2023-03-29T17:26:09.274Z,14.51
2023-03-29T17:28:36.239Z,14.54
2023-03-29T17:31:04.740Z,14.33
2023-03-29T17:33:31.894Z,14.27
2023-03-29T17:35:58.645Z,14.30
2023-03-29T17:38:26.732Z,14.15
2023-03-29T17:40:54.315Z,14.10
2023-03-29T17:43:21.582Z,14.06
2023-03-29T17:45:52.782Z,14.07
2023-03-29T17:48:19.902Z,14.12
2023-03-29T17:50:46.688Z,14.02
2023-03-29T17:53:13.480Z,13.99
2023-03-29T17:55:41.065Z,13.90
2023-03-29T17:58:08.242Z,13.77
2023-03-29T18:00:35.055Z,13.75
2023-03-29T18:03:02.000Z,13.47
2023-03-29T18:05:28.770Z,13.41
2023-03-29T18:07:56.409Z,13.47
2023-03-29T18:10:23.273Z,13.45
2023-03-29T18:12:50.160Z,13.34
2023-03-29T18:15:16.887Z,13.18
2023-03-29T18:17:43.672Z,13.10
2023-03-29T18:20:11.863Z,13.08
2023-03-29T18:22:41.328Z,12.88
2023-03-29T18:25:09.659Z,12.89
2023-03-29T18:27:37.918Z,12.84
2023-03-29T18:30:06.517Z,12.79
2023-03-29T18:32:33.429Z,12.72
2023-03-29T18:35:02.270Z,12.68
2023-03-29T18:37:29.103Z,12.68
2023-03-29T18:39:55.823Z,12.70
2023-03-29T18:42:22.569Z,12.71
2023-03-29T18:44:49.271Z,12.76
2023-03-29T18:47:18.217Z,12.69
2023-03-29T18:49:44.962Z,12.74
2023-03-29T18:52:11.750Z,12.83
2023-03-29T18:54:38.853Z,12.93
2023-03-29T18:57:05.685Z,13.03
2023-03-29T18:59:32.432Z,13.07
2023-03-29T19:02:00.124Z,13.11
2023-03-29T19:04:27.234Z,13.22
2023-03-29T19:06:56.026Z,13.21
2023-03-29T19:09:23.297Z,13.23
2023-03-29T19:11:49.942Z,13.43
2023-03-29T19:14:17.633Z,13.40
2023-03-29T19:16:44.299Z,13.36
2023-03-29T19:19:11.089Z,13.34
2023-03-29T19:21:38.611Z,13.34
2023-03-29T19:24:07.644Z,13.33
2023-03-29T19:26:34.338Z,13.34
2023-03-29T19:29:01.264Z,13.36
2023-03-29T19:31:28.379Z,13.31
2023-03-29T19:33:55.197Z,13.32
2023-03-29T19:36:22.209Z,13.38
2023-03-29T19:38:48.981Z,13.36
2023-03-29T19:41:15.883Z,13.31
2023-03-29T19:43:42.624Z,13.38
2023-03-29T19:46:11.581Z,13.43
2023-03-29T19:48:39.220Z,13.47
2023-03-29T19:51:06.712Z,13.40
2023-03-29T19:53:34.323Z,13.32
2023-03-29T19:56:04.451Z,13.28
2023-03-29T19:58:31.529Z,13.22
2023-03-29T20:00:58.173Z,13.13
2023-03-29T20:03:28.247Z,13.11
2023-03-29T20:05:56.540Z,13.08
2023-03-29T20:08:24.746Z,13.07
2023-03-29T20:11:10.575Z,13.08
2023-03-29T20:13:41.072Z,13.04
2023-03-29T20:16:13.933Z,13.02
2023-03-29T20:18:40.714Z,12.94
2023-03-29T20:21:09.011Z,12.78
2023-03-29T20:23:36.504Z,12.72
2023-03-29T20:26:03.471Z,12.79
2023-03-29T20:28:30.405Z,12.80
2023-03-29T20:30:57.117Z,12.82
2023-03-29T20:33:23.948Z,12.83
2023-03-29T20:35:50.848Z,12.81
2023-03-29T20:38:17.573Z,12.78
2023-03-29T20:40:44.948Z,12.81
2023-03-29T20:43:13.416Z,12.76
2023-03-29T20:45:52.202Z,12.69
2023-03-29T20:48:23.269Z,12.66
2023-03-29T20:50:51.363Z,12.64
2023-03-29T20:53:20.326Z,12.61
2023-03-29T20:55:49.629Z,12.55
2023-03-29T20:58:16.433Z,12.56
2023-03-29T21:00:43.770Z,12.58
2023-03-29T21:03:11.088Z,12.59
2023-03-29T21:05:38.949Z,12.64
2023-03-29T21:08:06.074Z,12.60
2023-03-29T21:10:32.842Z,12.61
2023-03-29T21:13:00.084Z,12.59
2023-03-29T21:15:28.716Z,12.56
2023-03-29T21:17:55.865Z,12.61
2023-03-29T21:20:22.732Z,12.60
2023-03-29T21:22:49.429Z,12.58
2023-03-29T21:25:16.169Z,12.54
2023-03-29T21:27:43.328Z,12.54
2023-03-29T21:30:10.950Z,12.51
2023-03-29T21:32:37.958Z,12.50
2023-03-29T21:35:04.994Z,12.46
2023-03-29T21:37:31.751Z,12.45
2023-03-29T21:39:58.594Z,12.45
2023-03-29T21:42:25.518Z,12.47
2023-03-29T21:44:52.205Z,12.47
2023-03-29T21:47:18.989Z,12.47
2023-03-29T21:49:45.740Z,12.47
2023-03-29T21:52:13.083Z,12.47
2023-03-29T21:54:39.755Z,12.46
2023-03-29T21:57:06.551Z,12.43
2023-03-29T21:59:33.473Z,12.39
2023-03-29T22:02:00.538Z,12.34
2023-03-29T22:04:36.576Z,12.37
2023-03-29T22:07:05.152Z,12.33
2023-03-29T22:09:33.312Z,12.33
2023-03-29T22:12:01.492Z,12.33
2023-03-29T22:14:30.995Z,12.36
2023-03-29T22:16:57.715Z,12.37
2023-03-29T22:19:24.431Z,12.38
2023-03-29T22:21:51.450Z,12.36
2023-03-29T22:24:18.482Z,12.29
2023-03-29T22:26:45.258Z,12.25
2023-03-29T22:29:12.195Z,12.26
2023-03-29T22:31:39.458Z,12.27
2023-03-29T22:34:06.797Z,12.28
2023-03-29T22:36:33.650Z,12.27
2023-03-29T22:39:00.536Z,12.28
2023-03-29T22:41:28.204Z,12.29
2023-03-29T22:43:57.573Z,12.22
2023-03-29T22:46:25.134Z,12.22
2023-03-29T22:48:52.376Z,12.20
2023-03-29T22:51:19.989Z,12.21
2023-03-29T22:53:47.086Z,12.19
2023-03-29T22:56:15.530Z,12.18
2023-03-29T22:58:42.327Z,12.19
2023-03-29T23:01:09.295Z,12.20
2023-03-29T23:03:36.094Z,12.19
2023-03-29T23:06:02.837Z,12.21
2023-03-29T23:08:31.395Z,12.18
2023-03-29T23:10:58.398Z,12.17
2023-03-29T23:13:29.262Z,12.12
2023-03-29T23:15:58.947Z,12.11
2023-03-29T23:18:27.765Z,12.12
2023-03-29T23:20:56.982Z,12.17
2023-03-29T23:23:25.479Z,12.23
2023-03-29T23:25:53.348Z,12.25
2023-03-29T23:28:23.475Z,12.24
2023-03-29T23:31:02.515Z,12.25
2023-03-29T23:33:33.338Z,12.21
2023-03-29T23:36:04.638Z,12.15
2023-03-29T23:38:33.346Z,12.13
2023-03-29T23:41:02.386Z,12.01
2023-03-29T23:43:32.677Z,11.95
2023-03-29T23:46:05.136Z,11.90
2023-03-29T23:48:32.564Z,11.84
2023-03-29T23:50:59.175Z,11.92
2023-03-29T23:53:28.638Z,11.83
2023-03-29T23:55:58.323Z,11.82
2023-03-29T23:58:24.964Z,11.92
